sensor_id;sensor_type;location;lat;lon;timestamp;P1;durP1;ratioP1;P2;durP2;ratioP2
23682;SDS011;24897;53.514;10.482;2022-08-25T00:01:38;74.40;;;68.70;;
23682;SDS011;24897;53.514;10.482;2022-08-25T00:04:29;75.47;;;69.73;;
23682;SDS011;24897;53.514;10.482;2022-08-25T00:07:13;76.07;;;70.13;;
23682;SDS011;24897;53.514;10.482;2022-08-25T00:09:58;74.60;;;69.00;;
23682;SDS011;24897;53.514;10.482;2022-08-25T00:12:42;74.77;;;69.23;;
23682;SDS011;24897;53.514;10.482;2022-08-25T00:15:26;77.93;;;71.97;;
23682;SDS011;24897;53.514;10.482;2022-08-25T00:18:11;75.97;;;70.17;;
23682;SDS011;24897;53.514;10.482;2022-08-25T00:20:56;73.93;;;68.10;;
23682;SDS011;24897;53.514;10.482;2022-08-25T00:23:41;76.43;;;70.83;;
23682;SDS011;24897;53.514;10.482;2022-08-25T00:26:25;78.00;;;71.93;;
23682;SDS011;24897;53.514;10.482;2022-08-25T00:29:10;74.83;;;69.23;;
23682;SDS011;24897;53.514;10.482;2022-08-25T00:31:55;73.90;;;68.33;;
23682;SDS011;24897;53.514;10.482;2022-08-25T00:34:40;76.83;;;70.93;;
23682;SDS011;24897;53.514;10.482;2022-08-25T00:37:25;79.30;;;73.07;;
23682;SDS011;24897;53.514;10.482;2022-08-25T00:40:10;78.20;;;72.17;;
23682;SDS011;24897;53.514;10.482;2022-08-25T00:42:55;74.47;;;68.73;;
23682;SDS011;24897;53.514;10.482;2022-08-25T00:45:39;75.47;;;69.47;;
23682;SDS011;24897;53.514;10.482;2022-08-25T00:48:23;77.50;;;71.60;;
23682;SDS011;24897;53.514;10.482;2022-08-25T00:51:09;75.43;;;69.63;;
23682;SDS011;24897;53.514;10.482;2022-08-25T00:53:59;75.87;;;69.97;;
23682;SDS011;24897;53.514;10.482;2022-08-25T00:56:44;79.40;;;73.37;;
23682;SDS011;24897;53.514;10.482;2022-08-25T00:59:29;80.60;;;74.50;;
23682;SDS011;24897;53.514;10.482;2022-08-25T01:02:13;71.40;;;65.83;;
23682;SDS011;24897;53.514;10.482;2022-08-25T01:04:58;68.70;;;63.30;;
23682;SDS011;24897;53.514;10.482;2022-08-25T01:07:43;68.40;;;63.00;;
23682;SDS011;24897;53.514;10.482;2022-08-25T01:10:28;67.50;;;62.00;;
23682;SDS011;24897;53.514;10.482;2022-08-25T01:13:18;66.03;;;60.73;;
23682;SDS011;24897;53.514;10.482;2022-08-25T01:16:14;63.73;;;58.57;;
23682;SDS011;24897;53.514;10.482;2022-08-25T01:18:59;63.40;;;58.17;;
23682;SDS011;24897;53.514;10.482;2022-08-25T01:21:50;61.20;;;56.03;;
23682;SDS011;24897;53.514;10.482;2022-08-25T01:27:25;54.30;;;49.77;;
23682;SDS011;24897;53.514;10.482;2022-08-25T01:30:09;55.47;;;50.60;;
23682;SDS011;24897;53.514;10.482;2022-08-25T01:32:54;53.93;;;49.53;;
23682;SDS011;24897;53.514;10.482;2022-08-25T01:35:38;52.93;;;48.33;;
23682;SDS011;24897;53.514;10.482;2022-08-25T01:38:23;33.37;;;29.77;;
23682;SDS011;24897;53.514;10.482;2022-08-25T01:41:07;33.43;;;30.03;;
23682;SDS011;24897;53.514;10.482;2022-08-25T01:43:51;33.33;;;30.03;;
23682;SDS011;24897;53.514;10.482;2022-08-25T01:46:36;33.20;;;29.90;;
23682;SDS011;24897;53.514;10.482;2022-08-25T01:49:21;32.57;;;29.27;;
23682;SDS011;24897;53.514;10.482;2022-08-25T01:52:08;34.73;;;30.70;;
23682;SDS011;24897;53.514;10.482;2022-08-25T01:55:07;34.47;;;30.70;;
23682;SDS011;24897;53.514;10.482;2022-08-25T01:57:51;33.77;;;30.30;;
23682;SDS011;24897;53.514;10.482;2022-08-25T02:00:36;33.33;;;29.90;;
23682;SDS011;24897;53.514;10.482;2022-08-25T02:03:20;32.07;;;28.77;;
23682;SDS011;24897;53.514;10.482;2022-08-25T02:06:05;32.80;;;29.50;;
23682;SDS011;24897;53.514;10.482;2022-08-25T02:08:51;34.80;;;30.37;;
23682;SDS011;24897;53.514;10.482;2022-08-25T02:11:37;33.93;;;30.50;;
23682;SDS011;24897;53.514;10.482;2022-08-25T02:14:24;34.17;;;30.77;;
23682;SDS011;24897;53.514;10.482;2022-08-25T02:17:11;33.60;;;30.27;;
23682;SDS011;24897;53.514;10.482;2022-08-25T02:19:55;34.60;;;30.93;;
23682;SDS011;24897;53.514;10.482;2022-08-25T02:22:40;34.43;;;30.90;;
23682;SDS011;24897;53.514;10.482;2022-08-25T02:25:24;34.13;;;30.63;;
23682;SDS011;24897;53.514;10.482;2022-08-25T02:28:08;34.67;;;31.07;;
23682;SDS011;24897;53.514;10.482;2022-08-25T02:30:53;34.27;;;30.87;;
23682;SDS011;24897;53.514;10.482;2022-08-25T02:33:37;34.03;;;30.63;;
23682;SDS011;24897;53.514;10.482;2022-08-25T02:36:22;34.10;;;30.50;;
23682;SDS011;24897;53.514;10.482;2022-08-25T02:39:07;32.87;;;29.57;;
23682;SDS011;24897;53.514;10.482;2022-08-25T02:41:52;32.83;;;29.63;;
23682;SDS011;24897;53.514;10.482;2022-08-25T02:44:36;33.20;;;29.90;;
23682;SDS011;24897;53.514;10.482;2022-08-25T02:47:21;34.37;;;30.97;;
23682;SDS011;24897;53.514;10.482;2022-08-25T02:50:06;33.60;;;30.13;;
23682;SDS011;24897;53.514;10.482;2022-08-25T02:52:51;34.47;;;30.97;;
23682;SDS011;24897;53.514;10.482;2022-08-25T02:55:34;33.57;;;30.10;;
23682;SDS011;24897;53.514;10.482;2022-08-25T02:58:19;32.70;;;29.37;;
23682;SDS011;24897;53.514;10.482;2022-08-25T03:01:04;33.70;;;30.30;;
23682;SDS011;24897;53.514;10.482;2022-08-25T03:03:50;35.53;;;31.73;;
23682;SDS011;24897;53.514;10.482;2022-08-25T03:06:35;34.33;;;30.90;;
23682;SDS011;24897;53.514;10.482;2022-08-25T03:09:19;34.47;;;30.93;;
23682;SDS011;24897;53.514;10.482;2022-08-25T03:12:03;35.10;;;31.57;;
23682;SDS011;24897;53.514;10.482;2022-08-25T03:14:48;34.97;;;31.13;;
23682;SDS011;24897;53.514;10.482;2022-08-25T03:17:32;34.77;;;31.37;;
23682;SDS011;24897;53.514;10.482;2022-08-25T03:20:18;33.87;;;30.53;;
23682;SDS011;24897;53.514;10.482;2022-08-25T03:23:03;34.83;;;31.27;;
23682;SDS011;24897;53.514;10.482;2022-08-25T03:25:49;36.70;;;32.90;;
23682;SDS011;24897;53.514;10.482;2022-08-25T03:28:52;34.90;;;31.27;;
23682;SDS011;24897;53.514;10.482;2022-08-25T03:31:38;35.73;;;31.60;;
23682;SDS011;24897;53.514;10.482;2022-08-25T03:34:23;35.77;;;32.07;;
23682;SDS011;24897;53.514;10.482;2022-08-25T03:37:07;34.67;;;31.27;;
23682;SDS011;24897;53.514;10.482;2022-08-25T03:39:52;35.77;;;31.97;;
23682;SDS011;24897;53.514;10.482;2022-08-25T03:42:40;36.33;;;32.53;;
23682;SDS011;24897;53.514;10.482;2022-08-25T03:45:25;35.83;;;32.00;;
23682;SDS011;24897;53.514;10.482;2022-08-25T03:48:10;37.20;;;33.23;;
23682;SDS011;24897;53.514;10.482;2022-08-25T03:50:54;37.10;;;33.20;;
23682;SDS011;24897;53.514;10.482;2022-08-25T03:53:39;37.20;;;33.47;;
23682;SDS011;24897;53.514;10.482;2022-08-25T03:56:24;39.20;;;34.90;;
23682;SDS011;24897;53.514;10.482;2022-08-25T03:59:10;38.97;;;35.07;;
23682;SDS011;24897;53.514;10.482;2022-08-25T04:01:55;37.83;;;33.83;;
23682;SDS011;24897;53.514;10.482;2022-08-25T04:04:39;37.30;;;33.43;;
23682;SDS011;24897;53.514;10.482;2022-08-25T04:07:23;38.57;;;34.37;;
23682;SDS011;24897;53.514;10.482;2022-08-25T04:10:09;41.73;;;36.73;;
23682;SDS011;24897;53.514;10.482;2022-08-25T04:12:55;49.73;;;41.17;;
23682;SDS011;24897;53.514;10.482;2022-08-25T04:15:43;46.23;;;38.47;;
23682;SDS011;24897;53.514;10.482;2022-08-25T04:18:27;63.33;;;44.90;;
23682;SDS011;24897;53.514;10.482;2022-08-25T04:21:13;70.53;;;46.50;;
23682;SDS011;24897;53.514;10.482;2022-08-25T04:23:58;63.23;;;46.77;;
23682;SDS011;24897;53.514;10.482;2022-08-25T04:26:44;55.47;;;46.33;;
23682;SDS011;24897;53.514;10.482;2022-08-25T04:29:31;57.97;;;46.97;;
23682;SDS011;24897;53.514;10.482;2022-08-25T04:32:15;64.27;;;48.67;;
23682;SDS011;24897;53.514;10.482;2022-08-25T04:34:59;58.67;;;45.83;;
23682;SDS011;24897;53.514;10.482;2022-08-25T04:37:43;69.30;;;47.37;;
23682;SDS011;24897;53.514;10.482;2022-08-25T04:40:30;61.73;;;50.10;;
23682;SDS011;24897;53.514;10.482;2022-08-25T04:43:15;80.30;;;50.57;;
23682;SDS011;24897;53.514;10.482;2022-08-25T04:46:04;75.53;;;51.93;;
23682;SDS011;24897;53.514;10.482;2022-08-25T04:48:55;75.47;;;50.60;;
23682;SDS011;24897;53.514;10.482;2022-08-25T04:51:41;90.00;;;50.93;;
23682;SDS011;24897;53.514;10.482;2022-08-25T04:54:25;87.53;;;51.57;;
23682;SDS011;24897;53.514;10.482;2022-08-25T04:57:11;72.33;;;49.37;;
23682;SDS011;24897;53.514;10.482;2022-08-25T04:59:55;86.63;;;51.17;;
23682;SDS011;24897;53.514;10.482;2022-08-25T05:02:39;85.10;;;52.77;;
23682;SDS011;24897;53.514;10.482;2022-08-25T05:05:23;101.60;;;56.80;;
23682;SDS011;24897;53.514;10.482;2022-08-25T05:08:08;112.07;;;59.23;;
23682;SDS011;24897;53.514;10.482;2022-08-25T05:10:52;83.93;;;57.63;;
23682;SDS011;24897;53.514;10.482;2022-08-25T05:13:39;98.33;;;60.60;;
23682;SDS011;24897;53.514;10.482;2022-08-25T05:16:24;87.10;;;60.87;;
23682;SDS011;24897;53.514;10.482;2022-08-25T05:19:09;96.83;;;64.03;;
23682;SDS011;24897;53.514;10.482;2022-08-25T05:21:53;76.23;;;58.17;;
23682;SDS011;24897;53.514;10.482;2022-08-25T05:24:38;83.40;;;56.60;;
23682;SDS011;24897;53.514;10.482;2022-08-25T05:27:23;72.73;;;57.00;;
23682;SDS011;24897;53.514;10.482;2022-08-25T05:30:08;75.53;;;57.00;;
23682;SDS011;24897;53.514;10.482;2022-08-25T05:32:54;76.10;;;58.10;;
23682;SDS011;24897;53.514;10.482;2022-08-25T05:35:38;71.17;;;56.73;;
23682;SDS011;24897;53.514;10.482;2022-08-25T05:38:22;84.00;;;57.27;;
23682;SDS011;24897;53.514;10.482;2022-08-25T05:41:07;98.47;;;58.60;;
23682;SDS011;24897;53.514;10.482;2022-08-25T05:43:54;103.67;;;56.77;;
23682;SDS011;24897;53.514;10.482;2022-08-25T05:46:39;74.67;;;55.43;;
23682;SDS011;24897;53.514;10.482;2022-08-25T05:49:23;87.93;;;55.20;;
23682;SDS011;24897;53.514;10.482;2022-08-25T05:52:08;88.07;;;56.70;;
23682;SDS011;24897;53.514;10.482;2022-08-25T05:54:52;101.47;;;58.63;;
23682;SDS011;24897;53.514;10.482;2022-08-25T05:57:37;86.40;;;58.97;;
23682;SDS011;24897;53.514;10.482;2022-08-25T06:00:21;82.17;;;57.80;;
23682;SDS011;24897;53.514;10.482;2022-08-25T06:03:05;89.37;;;60.33;;
23682;SDS011;24897;53.514;10.482;2022-08-25T06:05:50;83.43;;;57.30;;
23682;SDS011;24897;53.514;10.482;2022-08-25T06:08:34;76.03;;;54.53;;
23682;SDS011;24897;53.514;10.482;2022-08-25T06:11:19;76.97;;;55.43;;
23682;SDS011;24897;53.514;10.482;2022-08-25T06:14:03;79.10;;;56.77;;
23682;SDS011;24897;53.514;10.482;2022-08-25T06:16:48;71.00;;;52.70;;
23682;SDS011;24897;53.514;10.482;2022-08-25T06:19:33;80.87;;;52.37;;
23682;SDS011;24897;53.514;10.482;2022-08-25T06:22:18;69.50;;;53.40;;
23682;SDS011;24897;53.514;10.482;2022-08-25T06:25:04;77.67;;;52.93;;
23682;SDS011;24897;53.514;10.482;2022-08-25T06:27:49;95.63;;;57.07;;
23682;SDS011;24897;53.514;10.482;2022-08-25T06:30:33;79.70;;;55.83;;
23682;SDS011;24897;53.514;10.482;2022-08-25T06:33:18;92.30;;;53.93;;
23682;SDS011;24897;53.514;10.482;2022-08-25T06:36:02;74.20;;;54.23;;
23682;SDS011;24897;53.514;10.482;2022-08-25T06:38:47;90.90;;;54.93;;
23682;SDS011;24897;53.514;10.482;2022-08-25T06:41:32;81.93;;;53.93;;
23682;SDS011;24897;53.514;10.482;2022-08-25T06:44:15;82.30;;;52.97;;
23682;SDS011;24897;53.514;10.482;2022-08-25T06:47:00;90.37;;;54.53;;
23682;SDS011;24897;53.514;10.482;2022-08-25T06:49:44;86.40;;;52.17;;
23682;SDS011;24897;53.514;10.482;2022-08-25T06:52:29;61.97;;;50.30;;
23682;SDS011;24897;53.514;10.482;2022-08-25T06:55:14;83.80;;;51.23;;
23682;SDS011;24897;53.514;10.482;2022-08-25T06:57:58;68.67;;;50.87;;
23682;SDS011;24897;53.514;10.482;2022-08-25T07:00:43;63.77;;;50.87;;
23682;SDS011;24897;53.514;10.482;2022-08-25T07:03:27;71.07;;;50.37;;
23682;SDS011;24897;53.514;10.482;2022-08-25T07:06:12;58.83;;;50.73;;
23682;SDS011;24897;53.514;10.482;2022-08-25T07:08:57;58.90;;;48.33;;
23682;SDS011;24897;53.514;10.482;2022-08-25T07:11:42;60.10;;;49.37;;
23682;SDS011;24897;53.514;10.482;2022-08-25T07:14:27;59.27;;;48.37;;
23682;SDS011;24897;53.514;10.482;2022-08-25T07:17:13;55.13;;;47.70;;
23682;SDS011;24897;53.514;10.482;2022-08-25T07:19:58;58.77;;;47.00;;
23682;SDS011;24897;53.514;10.482;2022-08-25T07:22:42;52.93;;;45.93;;
23682;SDS011;24897;53.514;10.482;2022-08-25T07:25:26;51.90;;;45.13;;
23682;SDS011;24897;53.514;10.482;2022-08-25T07:28:12;55.10;;;44.07;;
23682;SDS011;24897;53.514;10.482;2022-08-25T07:30:57;54.17;;;44.60;;
23682;SDS011;24897;53.514;10.482;2022-08-25T07:33:44;49.97;;;43.80;;
23682;SDS011;24897;53.514;10.482;2022-08-25T07:36:47;49.73;;;43.27;;
23682;SDS011;24897;53.514;10.482;2022-08-25T07:39:32;49.27;;;43.07;;
23682;SDS011;24897;53.514;10.482;2022-08-25T07:42:18;52.00;;;43.10;;
23682;SDS011;24897;53.514;10.482;2022-08-25T07:45:02;46.10;;;41.10;;
23682;SDS011;24897;53.514;10.482;2022-08-25T07:47:48;48.50;;;41.83;;
23682;SDS011;24897;53.514;10.482;2022-08-25T07:50:37;48.53;;;42.53;;
23682;SDS011;24897;53.514;10.482;2022-08-25T07:53:25;45.53;;;40.57;;
23682;SDS011;24897;53.514;10.482;2022-08-25T07:56:11;43.27;;;37.70;;
23682;SDS011;24897;53.514;10.482;2022-08-25T07:58:58;44.23;;;35.97;;
23682;SDS011;24897;53.514;10.482;2022-08-25T08:01:42;40.63;;;36.37;;
23682;SDS011;24897;53.514;10.482;2022-08-25T08:04:27;39.70;;;35.57;;
23682;SDS011;24897;53.514;10.482;2022-08-25T08:07:11;40.03;;;35.80;;
23682;SDS011;24897;53.514;10.482;2022-08-25T08:09:56;36.83;;;33.20;;
23682;SDS011;24897;53.514;10.482;2022-08-25T08:12:40;35.27;;;31.87;;
23682;SDS011;24897;53.514;10.482;2022-08-25T08:15:25;35.70;;;30.27;;
23682;SDS011;24897;53.514;10.482;2022-08-25T08:18:09;33.17;;;29.92;;
23682;SDS011;24897;53.514;10.482;2022-08-25T08:20:54;31.67;;;28.60;;
23682;SDS011;24897;53.514;10.482;2022-08-25T08:23:38;30.83;;;27.67;;
23682;SDS011;24897;53.514;10.482;2022-08-25T08:26:23;29.27;;;26.27;;
23682;SDS011;24897;53.514;10.482;2022-08-25T08:29:07;28.10;;;25.30;;
23682;SDS011;24897;53.514;10.482;2022-08-25T08:31:51;26.55;;;24.15;;
23682;SDS011;24897;53.514;10.482;2022-08-25T08:34:35;25.20;;;22.80;;
23682;SDS011;24897;53.514;10.482;2022-08-25T08:37:20;26.63;;;21.95;;
23682;SDS011;24897;53.514;10.482;2022-08-25T08:40:05;22.25;;;20.02;;
23682;SDS011;24897;53.514;10.482;2022-08-25T08:45:52;21.42;;;19.50;;
23682;SDS011;24897;53.514;10.482;2022-08-25T08:48:50;22.42;;;20.42;;
23682;SDS011;24897;53.514;10.482;2022-08-25T08:51:47;22.08;;;19.98;;
23682;SDS011;24897;53.514;10.482;2022-08-25T08:54:38;22.00;;;19.92;;
23682;SDS011;24897;53.514;10.482;2022-08-25T08:57:24;21.50;;;19.38;;
23682;SDS011;24897;53.514;10.482;2022-08-25T09:00:12;22.05;;;20.00;;
23682;SDS011;24897;53.514;10.482;2022-08-25T09:02:59;21.83;;;19.63;;
23682;SDS011;24897;53.514;10.482;2022-08-25T09:05:50;21.83;;;19.65;;
23682;SDS011;24897;53.514;10.482;2022-08-25T09:08:38;21.10;;;19.05;;
23682;SDS011;24897;53.514;10.482;2022-08-25T09:26:30;21.27;;;19.48;;
23682;SDS011;24897;53.514;10.482;2022-08-25T09:29:20;21.20;;;19.35;;
23682;SDS011;24897;53.514;10.482;2022-08-25T09:32:07;21.33;;;19.63;;
23682;SDS011;24897;53.514;10.482;2022-08-25T09:34:52;21.23;;;19.33;;
23682;SDS011;24897;53.514;10.482;2022-08-25T09:37:38;21.48;;;19.48;;
23682;SDS011;24897;53.514;10.482;2022-08-25T09:40:23;21.23;;;19.35;;
23682;SDS011;24897;53.514;10.482;2022-08-25T09:46:16;22.00;;;20.00;;
23682;SDS011;24897;53.514;10.482;2022-08-25T09:49:11;22.13;;;19.83;;
23682;SDS011;24897;53.514;10.482;2022-08-25T09:51:56;24.25;;;19.10;;
23682;SDS011;24897;53.514;10.482;2022-08-25T09:55:29;20.98;;;18.95;;
23682;SDS011;24897;53.514;10.482;2022-08-25T09:58:21;21.23;;;19.42;;
23682;SDS011;24897;53.514;10.482;2022-08-25T10:01:12;20.80;;;18.90;;
23682;SDS011;24897;53.514;10.482;2022-08-25T10:04:03;21.25;;;19.20;;
23682;SDS011;24897;53.514;10.482;2022-08-25T10:06:48;22.85;;;19.20;;
23682;SDS011;24897;53.514;10.482;2022-08-25T10:09:37;20.35;;;18.38;;
23682;SDS011;24897;53.514;10.482;2022-08-25T10:12:28;19.50;;;17.70;;
23682;SDS011;24897;53.514;10.482;2022-08-25T10:15:23;19.80;;;18.08;;
23682;SDS011;24897;53.514;10.482;2022-08-25T10:18:26;19.85;;;17.77;;
23682;SDS011;24897;53.514;10.482;2022-08-25T10:21:13;19.75;;;17.92;;
23682;SDS011;24897;53.514;10.482;2022-08-25T10:24:01;20.67;;;18.73;;
23682;SDS011;24897;53.514;10.482;2022-08-25T10:30:07;19.70;;;17.67;;
23682;SDS011;24897;53.514;10.482;2022-08-25T10:33:50;19.42;;;17.63;;
23682;SDS011;24897;53.514;10.482;2022-08-25T10:36:19;19.77;;;17.60;;
23682;SDS011;24897;53.514;10.482;2022-08-25T10:39:14;19.60;;;17.80;;
23682;SDS011;24897;53.514;10.482;2022-08-25T10:42:25;21.05;;;19.05;;
23682;SDS011;24897;53.514;10.482;2022-08-25T10:45:25;20.73;;;18.67;;
23682;SDS011;24897;53.514;10.482;2022-08-25T10:48:35;20.50;;;18.40;;
23682;SDS011;24897;53.514;10.482;2022-08-25T10:58:13;21.00;;;18.00;;
23682;SDS011;24897;53.514;10.482;2022-08-25T11:01:23;20.10;;;18.20;;
23682;SDS011;24897;53.514;10.482;2022-08-25T11:04:14;18.73;;;17.02;;
23682;SDS011;24897;53.514;10.482;2022-08-25T11:10:21;19.10;;;17.30;;
23682;SDS011;24897;53.514;10.482;2022-08-25T11:13:21;18.90;;;17.30;;
23682;SDS011;24897;53.514;10.482;2022-08-25T11:16:35;18.77;;;17.02;;
23682;SDS011;24897;53.514;10.482;2022-08-25T11:19:21;18.75;;;17.15;;
23682;SDS011;24897;53.514;10.482;2022-08-25T11:22:31;18.75;;;16.85;;
23682;SDS011;24897;53.514;10.482;2022-08-25T11:28:42;18.20;;;16.75;;
23682;SDS011;24897;53.514;10.482;2022-08-25T11:31:29;19.83;;;17.45;;
23682;SDS011;24897;53.514;10.482;2022-08-25T11:34:23;18.08;;;16.55;;
23682;SDS011;24897;53.514;10.482;2022-08-25T11:37:18;18.42;;;16.73;;
23682;SDS011;24897;53.514;10.482;2022-08-25T11:40:27;19.10;;;17.30;;
23682;SDS011;24897;53.514;10.482;2022-08-25T11:46:48;19.50;;;17.90;;
23682;SDS011;24897;53.514;10.482;2022-08-25T11:52:45;18.50;;;16.83;;
23682;SDS011;24897;53.514;10.482;2022-08-25T12:02:05;19.20;;;17.60;;
23682;SDS011;24897;53.514;10.482;2022-08-25T12:04:36;19.35;;;17.67;;
23682;SDS011;24897;53.514;10.482;2022-08-25T12:07:28;19.15;;;17.48;;
23682;SDS011;24897;53.514;10.482;2022-08-25T12:10:53;19.55;;;17.75;;
23682;SDS011;24897;53.514;10.482;2022-08-25T12:13:47;18.73;;;17.00;;
23682;SDS011;24897;53.514;10.482;2022-08-25T12:22:38;18.42;;;16.83;;
23682;SDS011;24897;53.514;10.482;2022-08-25T12:25:26;22.60;;;20.63;;
23682;SDS011;24897;53.514;10.482;2022-08-25T12:28:25;18.38;;;16.77;;
23682;SDS011;24897;53.514;10.482;2022-08-25T12:37:26;20.33;;;18.27;;
23682;SDS011;24897;53.514;10.482;2022-08-25T12:40:11;19.65;;;18.05;;
23682;SDS011;24897;53.514;10.482;2022-08-25T12:43:52;18.23;;;16.60;;
23682;SDS011;24897;53.514;10.482;2022-08-25T12:52:25;19.23;;;17.55;;
23682;SDS011;24897;53.514;10.482;2022-08-25T12:55:09;20.98;;;18.67;;
23682;SDS011;24897;53.514;10.482;2022-08-25T12:57:55;19.98;;;18.30;;
23682;SDS011;24897;53.514;10.482;2022-08-25T13:16:21;19.42;;;17.73;;
23682;SDS011;24897;53.514;10.482;2022-08-25T13:19:15;20.20;;;18.27;;
23682;SDS011;24897;53.514;10.482;2022-08-25T13:22:08;19.30;;;17.42;;
23682;SDS011;24897;53.514;10.482;2022-08-25T13:24:56;18.67;;;17.17;;
23682;SDS011;24897;53.514;10.482;2022-08-25T13:27:40;19.48;;;17.88;;
23682;SDS011;24897;53.514;10.482;2022-08-25T13:33:15;18.85;;;17.25;;
23682;SDS011;24897;53.514;10.482;2022-08-25T13:36:01;19.17;;;17.55;;
23682;SDS011;24897;53.514;10.482;2022-08-25T13:42:20;18.60;;;16.92;;
23682;SDS011;24897;53.514;10.482;2022-08-25T13:45:05;19.55;;;17.73;;
23682;SDS011;24897;53.514;10.482;2022-08-25T13:47:50;18.80;;;17.30;;
23682;SDS011;24897;53.514;10.482;2022-08-25T13:50:36;18.40;;;16.70;;
23682;SDS011;24897;53.514;10.482;2022-08-25T13:53:24;18.65;;;17.05;;
23682;SDS011;24897;53.514;10.482;2022-08-25T13:56:09;19.40;;;17.70;;
23682;SDS011;24897;53.514;10.482;2022-08-25T13:58:54;19.13;;;17.23;;
23682;SDS011;24897;53.514;10.482;2022-08-25T14:01:45;18.98;;;17.38;;
23682;SDS011;24897;53.514;10.482;2022-08-25T14:04:43;18.38;;;16.88;;
23682;SDS011;24897;53.514;10.482;2022-08-25T14:07:31;19.70;;;18.10;;
23682;SDS011;24897;53.514;10.482;2022-08-25T14:16:13;18.35;;;16.83;;
23682;SDS011;24897;53.514;10.482;2022-08-25T14:19:04;19.25;;;17.40;;
23682;SDS011;24897;53.514;10.482;2022-08-25T14:21:52;19.17;;;17.30;;
23682;SDS011;24897;53.514;10.482;2022-08-25T14:24:41;19.23;;;17.27;;
23682;SDS011;24897;53.514;10.482;2022-08-25T14:27:26;18.75;;;17.15;;
23682;SDS011;24897;53.514;10.482;2022-08-25T14:30:10;19.10;;;17.38;;
23682;SDS011;24897;53.514;10.482;2022-08-25T14:32:55;19.30;;;17.38;;
23682;SDS011;24897;53.514;10.482;2022-08-25T14:35:42;18.67;;;17.08;;
23682;SDS011;24897;53.514;10.482;2022-08-25T14:38:28;19.23;;;17.30;;
23682;SDS011;24897;53.514;10.482;2022-08-25T14:41:13;18.55;;;16.80;;
23682;SDS011;24897;53.514;10.482;2022-08-25T14:43:58;18.90;;;17.10;;
23682;SDS011;24897;53.514;10.482;2022-08-25T14:46:44;19.23;;;17.42;;
23682;SDS011;24897;53.514;10.482;2022-08-25T14:49:34;19.45;;;17.42;;
23682;SDS011;24897;53.514;10.482;2022-08-25T14:52:26;20.00;;;18.00;;
23682;SDS011;24897;53.514;10.482;2022-08-25T14:55:12;19.33;;;17.52;;
23682;SDS011;24897;53.514;10.482;2022-08-25T14:57:56;19.33;;;17.70;;
23682;SDS011;24897;53.514;10.482;2022-08-25T15:00:41;20.02;;;18.13;;
23682;SDS011;24897;53.514;10.482;2022-08-25T15:03:31;19.98;;;18.20;;
23682;SDS011;24897;53.514;10.482;2022-08-25T15:06:19;19.48;;;17.67;;
23682;SDS011;24897;53.514;10.482;2022-08-25T15:09:06;20.75;;;17.98;;
23682;SDS011;24897;53.514;10.482;2022-08-25T15:11:54;19.67;;;17.85;;
23682;SDS011;24897;53.514;10.482;2022-08-25T15:14:39;20.15;;;18.15;;
23682;SDS011;24897;53.514;10.482;2022-08-25T15:17:23;20.15;;;18.05;;
23682;SDS011;24897;53.514;10.482;2022-08-25T15:20:08;19.50;;;17.85;;
23682;SDS011;24897;53.514;10.482;2022-08-25T15:22:52;20.35;;;17.88;;
23682;SDS011;24897;53.514;10.482;2022-08-25T15:25:36;19.42;;;17.70;;
23682;SDS011;24897;53.514;10.482;2022-08-25T15:28:21;20.33;;;18.33;;
23682;SDS011;24897;53.514;10.482;2022-08-25T15:31:07;19.52;;;17.58;;
23682;SDS011;24897;53.514;10.482;2022-08-25T15:33:51;19.45;;;17.75;;
23682;SDS011;24897;53.514;10.482;2022-08-25T15:36:36;20.25;;;18.15;;
23682;SDS011;24897;53.514;10.482;2022-08-25T15:39:21;20.48;;;18.58;;
23682;SDS011;24897;53.514;10.482;2022-08-25T15:42:05;19.67;;;18.08;;
23682;SDS011;24897;53.514;10.482;2022-08-25T15:44:52;19.48;;;17.55;;
23682;SDS011;24897;53.514;10.482;2022-08-25T15:47:36;20.60;;;18.70;;
23682;SDS011;24897;53.514;10.482;2022-08-25T15:50:21;19.48;;;17.77;;
23682;SDS011;24897;53.514;10.482;2022-08-25T15:53:06;21.05;;;18.13;;
23682;SDS011;24897;53.514;10.482;2022-08-25T15:55:50;19.88;;;18.15;;
23682;SDS011;24897;53.514;10.482;2022-08-25T15:58:35;19.17;;;17.48;;
23682;SDS011;24897;53.514;10.482;2022-08-25T16:01:21;19.42;;;17.63;;
23682;SDS011;24897;53.514;10.482;2022-08-25T16:04:07;19.65;;;17.92;;
23682;SDS011;24897;53.514;10.482;2022-08-25T16:06:52;20.55;;;18.80;;
23682;SDS011;24897;53.514;10.482;2022-08-25T16:09:37;19.77;;;17.77;;
23682;SDS011;24897;53.514;10.482;2022-08-25T16:12:23;20.08;;;18.17;;
23682;SDS011;24897;53.514;10.482;2022-08-25T16:15:08;19.95;;;17.80;;
23682;SDS011;24897;53.514;10.482;2022-08-25T16:17:52;20.40;;;18.35;;
23682;SDS011;24897;53.514;10.482;2022-08-25T16:20:37;19.70;;;17.88;;
23682;SDS011;24897;53.514;10.482;2022-08-25T16:23:27;19.55;;;17.85;;
23682;SDS011;24897;53.514;10.482;2022-08-25T16:26:11;19.52;;;17.63;;
23682;SDS011;24897;53.514;10.482;2022-08-25T16:28:56;19.40;;;17.48;;
23682;SDS011;24897;53.514;10.482;2022-08-25T16:31:40;18.90;;;17.23;;
23682;SDS011;24897;53.514;10.482;2022-08-25T16:34:24;19.10;;;17.10;;
23682;SDS011;24897;53.514;10.482;2022-08-25T16:37:08;19.45;;;17.65;;
23682;SDS011;24897;53.514;10.482;2022-08-25T16:39:53;20.02;;;17.40;;
23682;SDS011;24897;53.514;10.482;2022-08-25T16:42:38;19.45;;;17.60;;
23682;SDS011;24897;53.514;10.482;2022-08-25T16:45:22;19.63;;;17.88;;
23682;SDS011;24897;53.514;10.482;2022-08-25T16:48:06;19.73;;;17.75;;
23682;SDS011;24897;53.514;10.482;2022-08-25T16:50:50;19.48;;;17.80;;
23682;SDS011;24897;53.514;10.482;2022-08-25T16:53:34;19.17;;;17.48;;
23682;SDS011;24897;53.514;10.482;2022-08-25T16:56:37;19.60;;;18.00;;
23682;SDS011;24897;53.514;10.482;2022-08-25T16:59:24;19.77;;;17.80;;
23682;SDS011;24897;53.514;10.482;2022-08-25T17:02:09;20.10;;;17.98;;
23682;SDS011;24897;53.514;10.482;2022-08-25T17:04:54;19.63;;;17.98;;
23682;SDS011;24897;53.514;10.482;2022-08-25T17:07:38;19.90;;;17.92;;
23682;SDS011;24897;53.514;10.482;2022-08-25T17:10:22;19.98;;;18.08;;
23682;SDS011;24897;53.514;10.482;2022-08-25T17:13:06;19.58;;;17.92;;
23682;SDS011;24897;53.514;10.482;2022-08-25T17:15:51;19.73;;;17.92;;
23682;SDS011;24897;53.514;10.482;2022-08-25T17:18:35;20.50;;;18.45;;
23682;SDS011;24897;53.514;10.482;2022-08-25T17:21:21;20.90;;;18.80;;
23682;SDS011;24897;53.514;10.482;2022-08-25T17:24:09;20.75;;;18.85;;
23682;SDS011;24897;53.514;10.482;2022-08-25T17:26:54;20.67;;;18.88;;
23682;SDS011;24897;53.514;10.482;2022-08-25T17:29:38;20.52;;;18.55;;
23682;SDS011;24897;53.514;10.482;2022-08-25T17:32:23;20.90;;;18.88;;
23682;SDS011;24897;53.514;10.482;2022-08-25T17:35:07;20.83;;;18.13;;
23682;SDS011;24897;53.514;10.482;2022-08-25T17:37:53;20.08;;;18.27;;
23682;SDS011;24897;53.514;10.482;2022-08-25T17:40:38;20.25;;;18.23;;
23682;SDS011;24897;53.514;10.482;2022-08-25T17:43:23;19.92;;;18.23;;